Time;durP1;ratioP1;P1;durP2;ratioP2;P2;SDS_P1;SDS_P2;PMS_P1;PMS_P2;Temp;Humidity;BMP_temperature;BMP_pressure;BME280_temperature;BME280_humidity;BME280_pressure;Samples;Min_cycle;Max_cycle;Signal;HPM_P1;HPM_P2
2023/10/12 00:00:24;;;;;;;30.50;11.30;;;;;;;9.02;55.23;101798.92;107544;1254;108584;-64
2023/10/12 00:03:13;;;;;;;29.10;10.30;;;;;;;9.01;55.33;101795.08;107531;1256;99212;-65
2023/10/12 00:05:45;;;;;;;26.90;8.00;;;;;;;9.00;55.40;101792.67;107595;1256;101530;-64
2023/10/12 00:08:30;;;;;;;38.90;14.50;;;;;;;8.99;55.38;101790.58;107655;1254;112091;-63
2023/10/12 00:11:06;;;;;;;40.60;13.60;;;;;;;8.95;55.67;101782.73;107627;1251;109945;-66
2023/10/12 00:13:41;;;;;;;25.70;9.80;;;;;;;8.92;55.73;101783.48;107621;1254;108586;-65
2023/10/12 00:16:10;;;;;;;29.70;10.80;;;;;;;8.89;55.94;101784.39;107577;1251;99195;-65
2023/10/12 00:18:39;;;;;;;28.50;9.80;;;;;;;8.88;56.02;101786.82;107561;1251;99694;-65
2023/10/12 00:21:14;;;;;;;39.00;10.00;;;;;;;8.86;56.23;101786.92;107634;1253;111705;-63
2023/10/12 00:23:44;;;;;;;26.20;9.70;;;;;;;8.84;56.64;101782.02;107627;1251;109913;-65
2023/10/12 00:26:13;;;;;;;21.20;8.10;;;;;;;8.80;56.72;101778.49;107588;1251;107986;-64
2023/10/12 00:28:44;;;;;;;18.20;7.50;;;;;;;8.81;56.62;101777.08;107468;1257;99185;-62
2023/10/12 00:31:19;;;;;;;25.00;8.30;;;;;;;8.79;56.74;101772.70;107633;1251;99048;-63
2023/10/12 00:33:48;;;;;;;18.10;6.10;;;;;;;8.79;56.84;101767.86;107686;1251;112862;-64
2023/10/12 00:36:21;;;;;;;26.90;8.10;;;;;;;8.78;57.34;101768.30;107563;1256;109878;-65
2023/10/12 00:38:52;;;;;;;24.00;8.40;;;;;;;8.77;57.65;101766.01;107567;1254;107660;-63
2023/10/12 00:41:24;;;;;;;22.30;8.20;;;;;;;8.77;57.58;101763.33;107595;1253;99189;-64
2023/10/12 00:49:22;;;;;;;23.50;8.90;;;;;;;8.80;57.70;101757.96;107631;1251;109323;-64
2023/10/12 00:52:08;;;;;;;17.30;5.90;;;;;;;8.78;58.18;101758.27;107506;1251;108169;-63
2023/10/12 00:57:10;;;;;;;17.00;5.10;;;;;;;8.72;58.20;101752.95;107614;1254;99700;-65
2023/10/12 00:59:43;;;;;;;23.20;4.80;;;;;;;8.70;58.16;101751.98;107576;1252;113613;-65
2023/10/12 01:02:12;;;;;;;13.30;3.60;;;;;;;8.69;58.40;101750.68;107574;1254;110127;-64
2023/10/12 01:04:41;;;;;;;17.20;3.80;;;;;;;8.66;58.40;101749.36;107565;1255;108179;-64
2023/10/12 01:07:19;;;;;;;12.10;3.80;;;;;;;8.67;58.54;101750.77;107539;1256;99225;-64
2023/10/12 01:09:48;;;;;;;16.50;3.20;;;;;;;8.67;58.55;101746.83;107569;1254;99849;-64
2023/10/12 01:12:18;;;;;;;14.00;3.80;;;;;;;8.68;58.46;101742.50;107604;1251;112070;-63
2023/10/12 01:14:51;;;;;;;13.10;3.50;;;;;;;8.67;58.78;101743.61;107611;1254;110951;-63
2023/10/12 01:17:29;;;;;;;7.90;2.90;;;;;;;8.65;58.57;101745.54;107600;1251;107758;-63
2023/10/12 01:19:58;;;;;;;9.90;3.30;;;;;;;8.66;58.93;101747.61;107589;1256;99191;-63
2023/10/12 01:22:31;;;;;;;6.70;2.90;;;;;;;8.67;58.94;101744.66;107661;1253;99057;-64
2023/10/12 01:25:10;;;;;;;15.40;3.30;;;;;;;8.69;58.95;101741.13;107646;1251;112746;-64
2023/10/12 01:27:44;;;;;;;10.80;3.10;;;;;;;8.72;58.85;101739.33;107619;1251;109687;-63
2023/10/12 01:30:15;;;;;;;;;;;;;;;8.73;59.10;101736.20;107633;1251;106982;-63
2023/10/12 01:32:43;;;;;;;11.20;4.30;;;;;;;8.73;58.98;101734.29;107593;1253;99220;-65
2023/10/12 01:35:14;;;;;;;12.40;3.50;;;;;;;8.71;58.73;101734.42;107592;1251;99710;-65
2023/10/12 01:37:48;;;;;;;12.80;3.20;;;;;;;8.67;58.78;101739.64;107626;1251;112509;-64
2023/10/12 01:40:20;;;;;;;9.80;4.30;;;;;;;8.65;58.69;101736.27;107633;1251;108239;-64
2023/10/12 01:48:05;;;;;;;13.90;4.60;;;;;;;8.49;58.67;101731.52;107665;1251;99771;-63
2023/10/12 01:50:37;;;;;;;12.20;3.30;;;;;;;8.42;58.66;101737.31;107622;1251;112414;-65
2023/10/12 01:53:23;;;;;;;15.80;3.70;;;;;;;8.36;58.83;101733.07;107596;1251;109846;-63
2023/10/12 01:55:52;;;;;;;10.20;3.50;;;;;;;8.30;58.71;101726.09;107610;1251;108015;-63
2023/10/12 01:58:27;;;;;;;11.90;3.40;;;;;;;8.25;58.94;101721.92;107564;1252;99070;-63
2023/10/12 02:01:05;;;;;;;14.70;3.40;;;;;;;8.22;58.97;101720.34;107621;1254;99192;-64
2023/10/12 02:03:42;;;;;;;11.90;3.70;;;;;;;8.19;58.96;101717.48;107618;1251;112235;-65
2023/10/12 02:06:16;;;;;;;18.30;3.70;;;;;;;8.16;58.90;101720.36;107575;1251;109914;-63
2023/10/12 02:13:50;;;;;;;19.20;3.10;;;;;;;8.09;59.39;101716.85;107590;1254;99083;-62
2023/10/12 02:16:32;;;;;;;13.50;3.50;;;;;;;8.04;59.63;101713.08;107554;1252;113212;-65
2023/10/12 02:19:07;;;;;;;16.00;4.20;;;;;;;7.98;59.64;101716.64;107618;1253;110277;-64
2023/10/12 02:21:40;;;;;;;14.50;3.40;;;;;;;7.94;59.62;101715.09;107605;1252;107632;-63
2023/10/12 02:26:40;;;;;;;9.30;3.40;;;;;;;7.88;59.72;101707.49;107629;1253;99082;-63
2023/10/12 02:34:28;;;;;;;8.50;3.00;;;;;;;7.74;60.13;101708.11;107593;1253;109315;-64
2023/10/12 02:39:41;;;;;;;7.50;3.30;;;;;;;7.68;60.95;101704.21;107576;1254;99060;-64
2023/10/12 02:42:22;;;;;;;10.00;3.20;;;;;;;7.70;61.13;101699.10;107607;1253;112463;-64
2023/10/12 02:47:22;;;;;;;10.40;3.20;;;;;;;7.76;61.42;101703.73;107616;1253;106997;-63
2023/10/12 02:50:15;;;;;;;9.00;3.00;;;;;;;7.79;61.66;101703.89;107591;1254;99183;-64
2023/10/12 02:52:43;;;;;;;15.70;4.10;;;;;;;7.81;61.38;101698.41;107566;1254;99073;-64
2023/10/12 02:58:29;;;;;;;12.70;3.20;;;;;;;7.85;61.61;101695.83;107582;1254;109722;-62
2023/10/12 03:00:55;;;;;;;21.10;3.80;;;;;;;7.90;61.79;101699.13;107470;1254;107547;-64
2023/10/12 03:03:25;;;;;;;10.40;3.40;;;;;;;7.93;61.81;101699.61;107600;1254;99218;-63
2023/10/12 03:06:01;;;;;;;21.30;4.40;;;;;;;7.95;61.69;101697.34;107576;1252;99086;-65
2023/10/12 03:08:33;;;;;;;21.00;4.30;;;;;;;7.97;61.66;101694.92;107441;1254;112022;-65
2023/10/12 03:13:35;;;;;;;19.80;3.80;;;;;;;7.98;61.81;101690.73;107562;1254;108542;-63
2023/10/12 03:16:24;;;;;;;13.80;3.60;;;;;;;8.00;61.85;101689.04;107606;1253;99042;-62
2023/10/12 03:19:00;;;;;;;16.80;4.20;;;;;;;8.01;61.93;101690.02;107612;1254;99703;-63
2023/10/12 03:21:33;;;;;;;18.10;4.70;;;;;;;8.03;61.92;101688.16;107639;1254;112411;-63
2023/10/12 03:24:05;;;;;;;17.80;4.00;;;;;;;8.02;61.92;101681.56;107605;1253;110184;-63
2023/10/12 03:26:34;;;;;;;21.90;5.40;;;;;;;8.02;61.96;101680.70;107590;1253;105584;-63
2023/10/12 03:29:20;;;;;;;23.10;4.40;;;;;;;8.03;62.09;101677.27;107575;1253;99175;-63
2023/10/12 03:31:53;;;;;;;16.00;4.00;;;;;;;8.04;61.89;101679.71;107603;1253;99179;-62
2023/10/12 03:37:04;;;;;;;17.00;4.40;;;;;;;8.06;62.38;101682.05;107583;1253;109136;-63
2023/10/12 03:42:41;;;;;;;14.10;3.80;;;;;;;8.07;62.28;101682.71;107568;1253;99181;-63
2023/10/12 03:45:23;;;;;;;12.20;3.70;;;;;;;8.07;62.36;101688.23;107592;1255;99070;-64
2023/10/12 03:53:26;;;;;;;9.30;3.60;;;;;;;8.09;62.28;101690.22;107556;1251;108347;-63
2023/10/12 03:56:01;;;;;;;10.60;4.50;;;;;;;8.08;62.26;101687.59;107580;1251;99231;-63
2023/10/12 03:58:37;;;;;;;22.30;4.70;;;;;;;8.05;62.27;101690.00;107598;1252;99125;-62
2023/10/12 04:01:09;;;;;;;9.60;4.10;;;;;;;8.03;62.18;101693.35;107606;1256;113132;-62
2023/10/12 04:03:41;;;;;;;16.30;4.00;;;;;;;8.02;62.24;101694.30;107595;1251;109250;-62
2023/10/12 04:06:15;;;;;;;16.80;4.70;;;;;;;8.00;62.49;101693.12;107622;1251;108090;-64
2023/10/12 04:08:51;;;;;;;16.80;4.10;;;;;;;7.98;62.34;101696.13;107606;1251;99092;-62
2023/10/12 04:14:53;;;;;;;22.10;4.50;;;;;;;7.88;62.42;101699.61;107539;1251;112290;-63
2023/10/12 04:17:10;;;;;;;24.90;4.90;;;;;;;7.83;62.60;101692.00;107547;1251;108919;-62
2023/10/12 04:20:00;;;;;;;22.60;4.80;;;;;;;7.80;62.55;101690.45;107633;1254;108143;-63
2023/10/12 04:22:40;;;;;;;21.80;4.00;;;;;;;7.76;62.70;101689.05;107574;1254;99250;-63
2023/10/12 04:25:24;;;;;;;13.80;4.20;;;;;;;7.73;62.62;101696.79;107602;1252;99285;-63
2023/10/12 04:28:37;;;;;;;12.20;3.80;;;;;;;7.71;62.69;101697.78;107595;1251;113408;-62
2023/10/12 04:33:30;;;;;;;12.50;4.20;;;;;;;7.70;62.94;101703.23;107608;1251;108564;-62
2023/10/12 04:43:53;;;;;;;16.30;4.00;;;;;;;7.66;63.79;101727.73;107556;1254;108921;-63
2023/10/12 04:49:29;;;;;;;16.10;4.40;;;;;;;7.68;63.85;101727.92;107619;1251;99236;-63
2023/10/12 04:52:02;;;;;;;27.60;4.70;;;;;;;7.72;63.95;101723.97;107656;1253;99068;-63
2023/10/12 04:54:31;;;;;;;26.10;3.80;;;;;;;7.77;64.06;101720.61;107443;1253;112507;-62
2023/10/12 05:02:28;;;;;;;24.40;4.70;;;;;;;7.95;64.40;101722.94;107580;1254;99256;-63
2023/10/12 05:05:37;;;;;;;20.20;4.90;;;;;;;8.02;64.49;101721.77;107533;1256;99768;-62
2023/10/12 05:08:05;;;;;;;30.20;4.80;;;;;;;8.12;64.46;101720.96;107604;1256;112978;-63
2023/10/12 05:13:06;;;;;;;16.60;5.10;;;;;;;8.30;64.80;101719.29;107586;1252;108468;-63
2023/10/12 05:15:46;;;;;;;28.40;5.70;;;;;;;8.42;64.62;101717.62;107567;1253;99275;-63
2023/10/12 05:18:17;;;;;;;17.40;5.80;;;;;;;8.56;64.81;101715.33;107576;1253;100279;-63
2023/10/12 05:20:46;;;;;;;11.50;4.30;;;;;;;8.71;64.77;101718.09;107590;1253;112952;-63
2023/10/12 05:23:16;;;;;;;11.20;4.70;;;;;;;8.87;64.75;101718.67;107558;1256;109665;-63
2023/10/12 05:25:48;;;;;;;18.90;4.70;;;;;;;9.08;64.73;101717.13;107562;1254;107138;-63
2023/10/12 05:28:18;;;;;;;17.60;4.00;;;;;;;9.24;64.57;101718.76;107574;1254;99281;-63
2023/10/12 05:30:59;;;;;;;13.40;5.20;;;;;;;9.44;64.22;101716.48;107648;1256;100199;-62
2023/10/12 05:35:59;;;;;;;19.00;5.60;;;;;;;9.53;63.43;101730.90;107608;1254;109827;-63
2023/10/12 05:38:34;;;;;;;23.20;4.30;;;;;;;9.53;63.23;101734.52;107533;1254;108510;-63
2023/10/12 05:41:04;;;;;;;10.40;4.10;;;;;;;9.51;62.95;101736.28;107598;1254;99214;-61
2023/10/12 05:43:33;;;;;;;21.20;5.60;;;;;;;9.49;62.83;101740.16;107593;1251;99543;-62
2023/10/12 05:46:29;;;;;;;17.00;4.90;;;;;;;9.48;62.88;101739.31;107628;1251;112336;-63
2023/10/12 05:48:52;;;;;;;18.20;4.20;;;;;;;9.46;62.77;101742.47;107584;1256;109415;-63
2023/10/12 05:51:24;;;;;;;19.10;4.90;;;;;;;9.47;62.92;101742.95;107639;1255;107638;-62
2023/10/12 05:54:07;;;;;;;16.30;4.10;;;;;;;9.51;63.10;101746.27;107546;1252;99202;-63
2023/10/12 05:56:36;;;;;;;15.40;4.70;;;;;;;9.52;62.90;101744.59;107600;1251;99180;-62
2023/10/12 05:59:09;;;;;;;15.70;4.40;;;;;;;9.53;62.96;101743.80;107573;1254;115585;-62
2023/10/12 06:01:45;;;;;;;17.80;4.80;;;;;;;9.56;62.99;101741.61;107517;1253;109705;-62
2023/10/12 06:04:15;;;;;;;13.10;4.20;;;;;;;9.59;63.06;101740.21;107579;1251;107544;-62
2023/10/12 06:06:43;;;;;;;13.50;4.00;;;;;;;9.63;62.94;101742.95;107626;1251;99150;-63
2023/10/12 06:09:13;;;;;;;24.30;4.50;;;;;;;9.66;63.15;101741.29;107623;1251;99735;-64
2023/10/12 06:11:44;;;;;;;9.20;3.90;;;;;;;9.72;62.92;101743.04;107602;1251;113550;-65
2023/10/12 06:14:14;;;;;;;19.60;4.90;;;;;;;9.79;62.79;101745.45;107560;1251;109882;-63
2023/10/12 06:16:45;;;;;;;13.40;4.50;;;;;;;9.86;62.78;101745.65;107611;1252;108027;-63
2023/10/12 06:19:34;;;;;;;7.80;3.80;;;;;;;9.94;62.80;101744.76;107584;1251;99236;-64
2023/10/12 06:23:08;;;;;;;16.90;4.30;;;;;;;10.02;62.63;101743.12;107573;1255;99138;-63
2023/10/12 06:25:17;;;;;;;8.80;4.30;;;;;;;10.11;62.51;101737.67;107526;1254;113345;-63
2023/10/12 06:27:47;;;;;;;9.50;3.70;;;;;;;10.19;62.53;101741.96;107609;1254;108053;-63
2023/10/12 06:30:17;;;;;;;12.30;4.30;;;;;;;10.26;62.43;101743.56;107567;1251;106832;-63
2023/10/12 06:32:46;;;;;;;8.70;4.10;;;;;;;10.34;62.37;101739.45;107644;1254;99285;-63
2023/10/12 06:45:51;;;;;;;28.50;6.00;;;;;;;10.89;62.18;101727.92;107611;1253;99266;-64
2023/10/12 06:51:03;;;;;;;17.80;4.80;;;;;;;11.16;61.95;101722.84;107594;1254;113373;-65
2023/10/12 06:53:34;;;;;;;9.90;4.00;;;;;;;11.29;61.74;101722.59;107579;1253;108940;-65
2023/10/12 07:04:36;;;;;;;13.40;3.90;;;;;;;11.79;60.91;101722.30;107556;1254;113005;-66
2023/10/12 07:07:10;;;;;;;6.60;3.90;;;;;;;11.91;60.38;101721.39;107600;1254;108537;-66
2023/10/12 07:09:39;;;;;;;14.70;4.10;;;;;;;12.02;60.00;101713.38;107545;1254;107888;-65
2023/10/12 07:12:19;;;;;;;20.30;4.60;;;;;;;12.12;59.75;101715.10;107543;1253;99176;-65
2023/10/12 07:14:47;;;;;;;9.80;4.80;;;;;;;12.22;59.64;101712.30;107652;1253;99061;-64
2023/10/12 07:17:17;;;;;;;11.50;4.10;;;;;;;12.34;59.32;101713.36;107640;1251;113041;-64
2023/10/12 07:19:53;;;;;;;9.80;4.00;;;;;;;12.46;59.15;101712.70;107584;1251;108873;-64
2023/10/12 07:22:22;;;;;;;21.90;4.00;;;;;;;12.60;58.78;101707.25;107559;1252;106735;-64
2023/10/12 07:24:54;;;;;;;22.90;4.60;;;;;;;12.74;58.42;101706.65;107555;1253;99314;-64
2023/10/12 07:27:24;;;;;;;9.90;5.00;;;;;;;12.88;58.23;101710.02;107626;1252;99234;-64
2023/10/12 07:30:30;;;;;;;10.50;4.30;;;;;;;13.00;58.09;101709.34;107590;1251;113652;-64
2023/10/12 07:33:07;;;;;;;23.70;4.60;;;;;;;13.19;57.82;101703.84;107594;1251;108055;-64
2023/10/12 07:35:39;;;;;;;16.40;4.90;;;;;;;13.32;57.47;101701.98;107582;1253;108464;-63
2023/10/12 07:38:14;;;;;;;15.60;4.30;;;;;;;13.46;57.34;101704.41;107609;1251;99185;-63
2023/10/12 07:41:00;;;;;;;15.30;4.30;;;;;;;13.60;56.92;101697.14;107598;1251;99837;-64
2023/10/12 07:43:31;;;;;;;15.50;4.10;;;;;;;13.80;56.86;101694.65;107564;1254;112931;-64
2023/10/12 07:46:25;;;;;;;12.80;4.20;;;;;;;13.97;56.56;101692.80;107585;1252;108290;-64
2023/10/12 07:49:10;;;;;;;14.10;4.40;;;;;;;14.17;55.78;101691.61;107643;1254;107911;-63
2023/10/12 07:51:59;;;;;;;16.10;4.40;;;;;;;14.36;55.74;101685.77;107589;1251;99179;-65
2023/10/12 07:54:46;;;;;;;11.70;4.40;;;;;;;14.58;55.34;101685.52;107624;1252;99714;-65
2023/10/12 07:57:17;;;;;;;14.40;4.40;;;;;;;14.77;55.14;101681.17;107586;1254;112710;-64
2023/10/12 07:59:59;;;;;;;41.10;5.40;;;;;;;14.94;54.74;101681.39;107595;1251;109993;-64
2023/10/12 08:13:16;;;;;;;14.70;4.50;;;;;;;15.97;51.11;101663.61;107611;1254;108505;-64
2023/10/12 08:26:50;;;;;;;42.20;5.60;;;;;;;17.21;49.13;101650.52;107638;1254;109779;-64
2023/10/12 08:37:17;;;;;;;15.20;4.20;;;;;;;18.24;46.24;101637.05;107574;1254;112758;-64
2023/10/12 08:45:09;;;;;;;14.60;4.00;;;;;;;19.05;44.04;101620.98;107548;1254;99230;-63
2023/10/12 08:50:14;;;;;;;13.90;3.60;;;;;;;19.60;43.00;101616.10;107639;1253;113657;-64
2023/10/12 08:52:50;;;;;;;13.60;3.90;;;;;;;19.90;41.97;101610.77;107599;1254;109668;-64
2023/10/12 08:55:24;;;;;;;11.40;4.10;;;;;;;20.21;42.24;101608.67;107587;1253;108201;-64
2023/10/12 08:58:12;;;;;;;17.80;3.80;;;;;;;20.55;41.11;101608.14;107578;1254;99278;-64
2023/10/12 09:00:44;;;;;;;8.00;3.70;;;;;;;20.92;39.82;101599.60;107596;1254;99173;-64
2023/10/12 09:05:51;;;;;;;11.50;3.50;;;;;;;22.01;37.91;101595.45;107637;1255;108848;-64
2023/10/12 09:11:13;;;;;;;13.70;3.80;;;;;;;23.52;36.56;101587.51;107535;1253;99184;-64
2023/10/12 09:13:46;;;;;;;13.10;3.20;;;;;;;24.22;35.38;101589.23;107607;1255;99281;-64
2023/10/12 09:16:15;;;;;;;18.40;4.40;;;;;;;24.71;33.82;101589.83;107659;1253;113576;-65
2023/10/12 09:18:44;;;;;;;11.20;4.10;;;;;;;25.21;34.00;101583.46;107607;1253;108135;-64
2023/10/12 09:26:47;;;;;;;12.70;3.60;;;;;;;27.07;31.78;101562.80;107591;1254;99089;-65
2023/10/12 09:29:23;;;;;;;12.10;3.10;;;;;;;27.61;30.92;101563.30;107588;1253;112339;-64
2023/10/12 09:32:14;;;;;;;9.90;3.30;;;;;;;27.88;30.60;101560.70;107625;1254;110193;-65
2023/10/12 09:34:47;;;;;;;16.80;3.60;;;;;;;28.55;29.77;101555.28;107620;1252;108386;-65
2023/10/12 09:37:18;;;;;;;;;;;;;;;28.94;29.01;101545.89;107588;1254;99172;-66
2023/10/12 09:39:47;;;;;;;6.60;3.20;;;;;;;29.26;28.96;101539.36;107660;1254;99182;-65
2023/10/12 09:42:30;;;;;;;17.00;3.40;;;;;;;29.47;28.34;101535.39;107599;1254;113249;-65
2023/10/12 09:45:04;;;;;;;11.20;2.60;;;;;;;29.78;27.00;101533.63;107592;1254;109647;-64
2023/10/12 09:47:44;;;;;;;6.50;2.60;;;;;;;29.69;25.72;101528.48;107566;1254;108544;-65
2023/10/12 09:50:13;;;;;;;9.90;2.50;;;;;;;29.50;27.62;101515.02;107588;1254;99449;-64
2023/10/12 09:52:46;;;;;;;19.10;3.40;;;;;;;29.66;27.32;101508.34;107612;1254;99210;-65
2023/10/12 09:55:25;;;;;;;34.90;4.20;;;;;;;29.72;27.15;101501.63;107557;1252;112620;-64
2023/10/12 09:57:55;;;;;;;9.20;2.70;;;;;;;29.88;27.02;101498.45;107616;1254;109627;-65
2023/10/12 10:00:55;;;;;;;16.00;2.80;;;;;;;30.07;26.73;101493.32;107641;1253;107586;-65
2023/10/12 10:03:19;;;;;;;10.20;2.10;;;;;;;30.43;25.80;101486.63;107607;1254;99277;-65
2023/10/12 10:05:51;;;;;;;9.90;2.50;;;;;;;30.64;24.21;101481.13;107650;1253;99210;-64
2023/10/12 10:08:26;;;;;;;10.20;2.80;;;;;;;30.62;24.57;101472.33;107071;1254;748639;-64
2023/10/12 10:10:59;;;;;;;12.40;2.80;;;;;;;30.80;24.74;101469.80;107569;1254;109786;-65
2023/10/12 10:13:49;;;;;;;16.30;3.00;;;;;;;31.07;24.22;101464.01;107609;1254;107396;-64
2023/10/12 10:16:17;;;;;;;16.40;2.70;;;;;;;31.44;23.95;101452.48;107592;1254;99722;-66
2023/10/12 10:19:13;;;;;;;13.50;2.60;;;;;;;31.92;23.01;101454.95;107613;1254;99188;-64
2023/10/12 10:22:04;;;;;;;14.50;3.40;;;;;;;32.19;22.92;101445.34;107581;1253;112915;-65
2023/10/12 10:24:46;;;;;;;10.80;3.10;;;;;;;32.47;23.04;101443.95;107525;1252;110541;-65
2023/10/12 10:27:16;;;;;;;8.00;2.30;;;;;;;32.91;22.49;101439.02;107558;1256;108375;-64
2023/10/12 10:29:55;;;;;;;11.40;2.70;;;;;;;33.32;22.14;101435.79;107590;1253;99173;-65
2023/10/12 10:32:33;;;;;;;18.60;3.30;;;;;;;33.52;21.89;101422.58;107595;1253;99167;-65
2023/10/12 10:35:18;;;;;;;22.20;3.30;;;;;;;33.88;21.28;101417.84;107551;1256;113671;-65
2023/10/12 10:37:47;;;;;;;14.10;2.30;;;;;;;34.13;21.07;101411.42;107627;1254;110039;-66
2023/10/12 10:40:20;;;;;;;10.60;2.50;;;;;;;34.35;20.49;101404.52;107592;1254;108319;-66
2023/10/12 10:43:07;;;;;;;;;;;;;;;34.42;20.30;101403.70;107673;1254;99215;-66
2023/10/12 10:45:38;;;;;;;11.60;2.80;;;;;;;34.33;20.58;101398.62;107620;1253;99204;-65
2023/10/12 10:48:06;;;;;;;14.10;2.90;;;;;;;34.24;20.25;101395.50;107591;1254;112803;-66
2023/10/12 10:50:55;;;;;;;9.50;2.80;;;;;;;34.01;20.18;101395.30;107571;1254;109112;-64
2023/10/12 10:53:30;;;;;;;17.30;2.20;;;;;;;33.81;20.44;101389.30;107578;1254;108341;-66
2023/10/12 10:56:00;;;;;;;7.30;2.90;;;;;;;33.95;20.39;101387.44;107599;1251;99201;-65
2023/10/12 10:58:28;;;;;;;10.80;2.00;;;;;;;34.10;20.38;101380.11;107614;1254;99119;-65
2023/10/12 11:00:56;;;;;;;10.40;2.30;;;;;;;34.31;20.82;101376.91;107599;1254;113093;-65
2023/10/12 11:03:32;;;;;;;12.60;2.00;;;;;;;34.75;20.18;101373.83;107553;1254;109374;-65
2023/10/12 11:06:01;;;;;;;14.40;2.50;;;;;;;35.16;19.29;101375.05;107549;1254;108578;-65
2023/10/12 11:08:32;;;;;;;8.60;2.20;;;;;;;35.08;19.36;101368.29;107527;1254;99211;-65
2023/10/12 11:13:40;;;;;;;9.30;2.00;;;;;;;34.68;19.15;101358.27;107522;1254;112704;-65
2023/10/12 11:16:22;;;;;;;6.90;1.90;;;;;;;34.22;19.91;101354.06;107510;1254;110928;-65
2023/10/12 11:18:54;;;;;;;9.10;2.70;;;;;;;34.10;19.67;101352.14;107549;1254;107637;-65
2023/10/12 11:21:26;;;;;;;12.80;2.60;;;;;;;33.76;19.65;101356.66;107557;1254;99275;-65
2023/10/12 11:24:03;;;;;;;10.40;2.10;;;;;;;33.45;20.01;101346.54;107579;1254;99692;-65
2023/10/12 11:26:39;;;;;;;9.10;1.70;;;;;;;33.11;20.45;101340.77;107532;1253;112629;-64
2023/10/12 11:29:11;;;;;;;9.70;1.90;;;;;;;32.84;20.49;101349.65;107532;1254;109293;-64
2023/10/12 11:31:39;;;;;;;6.50;2.00;;;;;;;32.54;20.86;101341.13;107542;1252;109766;-64
2023/10/12 11:34:12;;;;;;;7.20;2.10;;;;;;;32.37;20.98;101342.05;107568;1254;99176;-63
2023/10/12 11:36:41;;;;;;;7.60;2.10;;;;;;;32.25;21.13;101338.86;107546;1254;99039;-64
2023/10/12 11:39:18;;;;;;;16.90;2.30;;;;;;;32.14;21.23;101332.02;107530;1254;113174;-64
2023/10/12 11:42:12;;;;;;;19.00;2.50;;;;;;;31.97;21.26;101328.08;107433;1256;110006;-65
2023/10/12 11:44:42;;;;;;;16.00;3.00;;;;;;;31.63;21.90;101320.84;107511;1254;107339;-64
2023/10/12 11:47:16;;;;;;;8.90;2.30;;;;;;;31.37;21.77;101318.92;107539;1254;99289;-64
2023/10/12 11:49:50;;;;;;;9.90;2.30;;;;;;;31.18;22.04;101313.41;107556;1254;99077;-64
2023/10/12 11:52:29;;;;;;;13.60;3.10;;;;;;;30.96;22.11;101308.02;107464;1254;112844;-63
2023/10/12 11:55:07;;;;;;;16.40;3.10;;;;;;;30.70;22.34;101306.60;107555;1256;109212;-64
2023/10/12 11:57:38;;;;;;;14.70;2.80;;;;;;;30.40;22.76;101298.38;107464;1254;108882;-64
2023/10/12 12:02:55;;;;;;;10.50;2.30;;;;;;;30.02;23.21;101306.60;107542;1252;99192;-64
2023/10/12 12:05:26;;;;;;;9.60;2.70;;;;;;;29.90;23.69;101297.57;107545;1254;113761;-64
2023/10/12 12:07:56;;;;;;;16.50;2.80;;;;;;;29.97;23.50;101289.77;107480;1254;107180;-63
2023/10/12 12:10:38;;;;;;;13.00;2.20;;;;;;;30.15;23.40;101287.38;107528;1255;107289;-63
2023/10/12 12:13:09;;;;;;;13.20;2.60;;;;;;;30.42;23.37;101285.41;107495;1251;99291;-64
2023/10/12 12:15:45;;;;;;;7.80;2.60;;;;;;;30.72;23.10;101281.76;107555;1255;99079;-63
2023/10/12 12:18:19;;;;;;;11.70;2.70;;;;;;;30.89;22.56;101280.63;107562;1255;112318;-64
2023/10/12 12:20:57;;;;;;;30.90;3.70;;;;;;;30.82;22.70;101274.43;107562;1255;109033;-64
2023/10/12 12:23:29;;;;;;;67.40;6.10;;;;;;;30.90;22.85;101265.01;107549;1256;108281;-63
2023/10/12 12:26:09;;;;;;;32.60;3.20;;;;;;;31.28;23.02;101262.81;107547;1253;99183;-64
2023/10/12 12:28:44;;;;;;;14.30;2.70;;;;;;;31.87;22.07;101260.50;107575;1252;99825;-63
2023/10/12 12:31:14;;;;;;;13.70;2.50;;;;;;;32.44;21.56;101254.44;107534;1253;113190;-63
2023/10/12 12:33:44;;;;;;;18.50;3.10;;;;;;;32.92;21.67;101250.26;107494;1254;109764;-64
2023/10/12 12:36:20;;;;;;;16.80;3.70;;;;;;;33.45;20.68;101245.98;107518;1254;108105;-62
2023/10/12 12:41:54;;;;;;;17.30;2.40;;;;;;;34.35;19.56;101237.48;107144;1261;101511;-63
2023/10/12 12:44:22;;;;;;;11.40;2.70;;;;;;;34.57;19.23;101241.20;107548;1254;113125;-63
2023/10/12 12:46:50;;;;;;;10.40;1.80;;;;;;;34.74;19.24;101242.85;107504;1254;108897;-62
2023/10/12 12:49:19;;;;;;;9.50;1.80;;;;;;;34.93;19.13;101237.14;107467;1252;107759;-63
2023/10/12 12:51:49;;;;;;;12.80;2.10;;;;;;;35.11;18.69;101237.03;107520;1254;99192;-63
2023/10/12 12:54:18;;;;;;;11.10;2.20;;;;;;;35.15;18.47;101233.02;107570;1251;99710;-63
2023/10/12 12:56:46;;;;;;;5.50;2.00;;;;;;;35.47;18.36;101231.03;107544;1254;113850;-62
2023/10/12 12:59:17;;;;;;;6.10;1.90;;;;;;;35.77;18.04;101228.06;107588;1254;109549;-64
2023/10/12 13:01:45;;;;;;;14.50;2.40;;;;;;;35.82;18.19;101216.77;107472;1254;108652;-64
2023/10/12 13:04:14;;;;;;;7.50;2.20;;;;;;;36.00;17.96;101212.00;107482;1254;99257;-63
2023/10/12 13:06:43;;;;;;;10.50;2.10;;;;;;;36.25;17.74;101213.09;107630;1256;99387;-63
2023/10/12 13:09:28;;;;;;;10.90;2.30;;;;;;;36.45;17.81;101209.08;107615;1252;112347;-63
2023/10/12 13:11:57;;;;;;;8.20;2.10;;;;;;;36.85;18.01;101201.40;107592;1254;110409;-63
2023/10/12 13:14:28;;;;;;;10.40;2.40;;;;;;;37.27;17.36;101198.70;107603;1254;108110;-62
2023/10/12 13:16:57;;;;;;;12.00;2.60;;;;;;;37.29;16.83;101195.55;107624;1254;99195;-63
2023/10/12 13:19:27;;;;;;;6.20;2.30;;;;;;;37.01;16.92;101197.46;107623;1255;99248;-63
2023/10/12 13:21:55;;;;;;;3.80;2.20;;;;;;;36.51;17.18;101196.78;107552;1256;112653;-63
2023/10/12 13:24:23;;;;;;;20.60;2.60;;;;;;;36.18;17.51;101196.38;107491;1254;108799;-64
2023/10/12 13:26:51;;;;;;;14.70;2.30;;;;;;;35.83;17.43;101199.13;107530;1251;108382;-64
2023/10/12 13:29:20;;;;;;;16.00;2.50;;;;;;;35.09;18.14;101191.13;107554;1254;99203;-62
2023/10/12 13:31:50;;;;;;;10.70;2.30;;;;;;;34.68;18.84;101189.91;107572;1254;99196;-63
2023/10/12 13:34:19;;;;;;;9.80;1.90;;;;;;;34.45;18.88;101186.52;107579;1254;112613;-63
2023/10/12 13:36:48;;;;;;;10.10;2.30;;;;;;;34.20;19.08;101187.96;107521;1253;110783;-62
2023/10/12 13:39:17;;;;;;;6.60;2.10;;;;;;;34.01;19.30;101186.82;107558;1255;108255;-63
2023/10/12 13:41:45;;;;;;;11.80;2.90;;;;;;;33.46;19.38;101188.64;107550;1252;99898;-63
2023/10/12 13:44:13;;;;;;;9.40;2.10;;;;;;;32.60;19.90;101184.59;107579;1256;99210;-64
2023/10/12 13:46:45;;;;;;;18.40;2.60;;;;;;;31.72;20.63;101187.76;107636;1255;113169;-63
2023/10/12 13:49:14;;;;;;;7.70;2.30;;;;;;;30.95;21.35;101185.61;107592;1256;110382;-63
2023/10/12 13:51:47;;;;;;;14.80;2.70;;;;;;;30.23;22.02;101172.84;107542;1255;107828;-63
2023/10/12 13:54:16;;;;;;;12.50;2.50;;;;;;;29.99;22.56;101170.15;107519;1254;99179;-63
2023/10/12 13:56:48;;;;;;;21.90;2.80;;;;;;;29.74;22.55;101171.68;107541;1257;99205;-62
2023/10/12 13:59:18;;;;;;;13.00;2.50;;;;;;;29.50;22.92;101169.27;107561;1254;112712;-63
2023/10/12 14:01:48;;;;;;;12.50;2.50;;;;;;;29.19;23.09;101168.09;107573;1254;109165;-62
2023/10/12 14:04:54;;;;;;;13.80;2.90;;;;;;;28.86;23.36;101161.83;107550;1254;108720;-63
2023/10/12 14:07:12;;;;;;;13.30;3.30;;;;;;;29.49;23.47;101161.08;107547;1255;99329;-61
2023/10/12 14:09:41;;;;;;;16.20;2.50;;;;;;;30.70;22.84;101162.58;107492;1256;100898;-64
2023/10/12 14:12:10;;;;;;;24.10;3.60;;;;;;;31.68;22.03;101162.36;107477;1254;112678;-64
2023/10/12 14:14:39;;;;;;;17.60;3.50;;;;;;;32.61;21.61;101165.11;107545;1254;108493;-63